sensor_id;sensor_type;location;lat;lon;timestamp;P1;durP1;ratioP1;P2;durP2;ratioP2
38937;SDS011;24727;51.974;20.868;2023-05-29T00:00:42;9.13;;;4.97;;
38937;SDS011;24727;51.974;20.868;2023-05-29T00:03:08;10.68;;;4.97;;
38937;SDS011;24727;51.974;20.868;2023-05-29T00:05:35;10.23;;;4.78;;
38937;SDS011;24727;51.974;20.868;2023-05-29T00:08:02;8.15;;;5.03;;
38937;SDS011;24727;51.974;20.868;2023-05-29T00:10:29;6.70;;;4.03;;
38937;SDS011;24727;51.974;20.868;2023-05-29T00:13:02;7.25;;;4.82;;
38937;SDS011;24727;51.974;20.868;2023-05-29T00:17:56;10.35;;;3.80;;
38937;SDS011;24727;51.974;20.868;2023-05-29T00:20:22;6.53;;;3.65;;
38937;SDS011;24727;51.974;20.868;2023-05-29T00:22:48;8.15;;;4.22;;
38937;SDS011;24727;51.974;20.868;2023-05-29T00:25:15;5.57;;;3.30;;
38937;SDS011;24727;51.974;20.868;2023-05-29T00:27:41;10.45;;;3.75;;
38937;SDS011;24727;51.974;20.868;2023-05-29T00:30:08;7.55;;;3.50;;
38937;SDS011;24727;51.974;20.868;2023-05-29T00:32:34;8.43;;;4.13;;
38937;SDS011;24727;51.974;20.868;2023-05-29T00:35:00;5.30;;;3.50;;
38937;SDS011;24727;51.974;20.868;2023-05-29T00:37:27;7.15;;;3.88;;
38937;SDS011;24727;51.974;20.868;2023-05-29T00:39:59;9.98;;;4.60;;
38937;SDS011;24727;51.974;20.868;2023-05-29T00:42:25;8.20;;;3.50;;
38937;SDS011;24727;51.974;20.868;2023-05-29T00:44:57;9.10;;;3.88;;
38937;SDS011;24727;51.974;20.868;2023-05-29T00:47:23;6.88;;;3.90;;
38937;SDS011;24727;51.974;20.868;2023-05-29T00:49:51;6.32;;;3.78;;
38937;SDS011;24727;51.974;20.868;2023-05-29T00:52:18;8.02;;;4.43;;
38937;SDS011;24727;51.974;20.868;2023-05-29T00:54:45;5.85;;;3.63;;
38937;SDS011;24727;51.974;20.868;2023-05-29T00:57:13;7.68;;;3.67;;
38937;SDS011;24727;51.974;20.868;2023-05-29T00:59:42;6.15;;;3.95;;
38937;SDS011;24727;51.974;20.868;2023-05-29T01:02:09;5.57;;;3.50;;
38937;SDS011;24727;51.974;20.868;2023-05-29T01:04:35;4.75;;;3.17;;
38937;SDS011;24727;51.974;20.868;2023-05-29T01:07:04;6.90;;;3.50;;
38937;SDS011;24727;51.974;20.868;2023-05-29T01:09:30;4.75;;;3.22;;
38937;SDS011;24727;51.974;20.868;2023-05-29T01:14:45;5.55;;;3.20;;
38937;SDS011;24727;51.974;20.868;2023-05-29T01:25:46;4.60;;;2.92;;
38937;SDS011;24727;51.974;20.868;2023-05-29T01:28:19;7.38;;;3.50;;
38937;SDS011;24727;51.974;20.868;2023-05-29T01:30:49;12.50;;;3.80;;
38937;SDS011;24727;51.974;20.868;2023-05-29T01:33:16;6.90;;;3.55;;
38937;SDS011;24727;51.974;20.868;2023-05-29T01:35:42;6.70;;;3.53;;
38937;SDS011;24727;51.974;20.868;2023-05-29T01:38:08;5.43;;;2.97;;
38937;SDS011;24727;51.974;20.868;2023-05-29T01:40:35;6.45;;;2.97;;
38937;SDS011;24727;51.974;20.868;2023-05-29T01:43:02;5.50;;;3.25;;
38937;SDS011;24727;51.974;20.868;2023-05-29T01:45:29;9.18;;;3.47;;
38937;SDS011;24727;51.974;20.868;2023-05-29T01:47:56;6.97;;;3.30;;
38937;SDS011;24727;51.974;20.868;2023-05-29T01:50:22;6.13;;;2.83;;
38937;SDS011;24727;51.974;20.868;2023-05-29T01:52:50;7.20;;;3.97;;
38937;SDS011;24727;51.974;20.868;2023-05-29T01:55:16;6.03;;;3.60;;
38937;SDS011;24727;51.974;20.868;2023-05-29T01:57:43;8.82;;;4.13;;
38937;SDS011;24727;51.974;20.868;2023-05-29T02:00:11;13.30;;;4.15;;
38937;SDS011;24727;51.974;20.868;2023-05-29T02:02:38;6.47;;;3.65;;
38937;SDS011;24727;51.974;20.868;2023-05-29T02:05:05;8.98;;;4.50;;
38937;SDS011;24727;51.974;20.868;2023-05-29T02:07:33;6.85;;;4.53;;
38937;SDS011;24727;51.974;20.868;2023-05-29T02:09:59;7.35;;;3.70;;
38937;SDS011;24727;51.974;20.868;2023-05-29T02:12:25;7.53;;;3.80;;
38937;SDS011;24727;51.974;20.868;2023-05-29T02:14:53;6.47;;;3.70;;
38937;SDS011;24727;51.974;20.868;2023-05-29T02:17:25;7.88;;;3.78;;
38937;SDS011;24727;51.974;20.868;2023-05-29T02:19:51;7.20;;;3.80;;
38937;SDS011;24727;51.974;20.868;2023-05-29T02:22:17;6.90;;;3.83;;
38937;SDS011;24727;51.974;20.868;2023-05-29T02:24:44;10.00;;;4.30;;
38937;SDS011;24727;51.974;20.868;2023-05-29T02:27:10;6.07;;;4.13;;
38937;SDS011;24727;51.974;20.868;2023-05-29T02:29:36;5.25;;;3.53;;
38937;SDS011;24727;51.974;20.868;2023-05-29T02:32:02;5.22;;;2.92;;
38937;SDS011;24727;51.974;20.868;2023-05-29T02:34:30;5.88;;;3.28;;
38937;SDS011;24727;51.974;20.868;2023-05-29T02:36:56;5.03;;;3.38;;
38937;SDS011;24727;51.974;20.868;2023-05-29T02:39:22;6.63;;;3.30;;
38937;SDS011;24727;51.974;20.868;2023-05-29T02:41:48;7.53;;;4.32;;
38937;SDS011;24727;51.974;20.868;2023-05-29T02:44:15;6.63;;;3.92;;
38937;SDS011;24727;51.974;20.868;2023-05-29T02:46:41;8.10;;;3.72;;
38937;SDS011;24727;51.974;20.868;2023-05-29T02:49:07;8.52;;;4.03;;
38937;SDS011;24727;51.974;20.868;2023-05-29T02:51:34;7.03;;;3.75;;
38937;SDS011;24727;51.974;20.868;2023-05-29T02:54:02;6.07;;;3.67;;
38937;SDS011;24727;51.974;20.868;2023-05-29T02:56:30;6.47;;;3.58;;
38937;SDS011;24727;51.974;20.868;2023-05-29T02:58:56;7.13;;;3.55;;
38937;SDS011;24727;51.974;20.868;2023-05-29T03:01:22;4.65;;;2.92;;
38937;SDS011;24727;51.974;20.868;2023-05-29T03:03:49;7.40;;;4.03;;
38937;SDS011;24727;51.974;20.868;2023-05-29T03:06:15;7.43;;;3.95;;
38937;SDS011;24727;51.974;20.868;2023-05-29T03:08:44;6.20;;;3.70;;
38937;SDS011;24727;51.974;20.868;2023-05-29T03:11:10;4.57;;;3.13;;
38937;SDS011;24727;51.974;20.868;2023-05-29T03:13:37;6.70;;;4.00;;
38937;SDS011;24727;51.974;20.868;2023-05-29T03:16:04;8.75;;;3.88;;
38937;SDS011;24727;51.974;20.868;2023-05-29T03:18:30;6.05;;;3.60;;
38937;SDS011;24727;51.974;20.868;2023-05-29T03:20:56;8.38;;;4.07;;
38937;SDS011;24727;51.974;20.868;2023-05-29T03:23:23;5.30;;;3.85;;
38937;SDS011;24727;51.974;20.868;2023-05-29T03:25:49;7.85;;;4.47;;
38937;SDS011;24727;51.974;20.868;2023-05-29T03:28:15;6.80;;;3.60;;
38937;SDS011;24727;51.974;20.868;2023-05-29T03:30:41;7.60;;;4.00;;
38937;SDS011;24727;51.974;20.868;2023-05-29T03:33:07;10.20;;;4.38;;
38937;SDS011;24727;51.974;20.868;2023-05-29T03:35:35;6.82;;;4.15;;
38937;SDS011;24727;51.974;20.868;2023-05-29T03:38:01;8.10;;;4.22;;
38937;SDS011;24727;51.974;20.868;2023-05-29T03:40:28;9.68;;;4.07;;
38937;SDS011;24727;51.974;20.868;2023-05-29T03:42:54;7.85;;;4.20;;
38937;SDS011;24727;51.974;20.868;2023-05-29T03:45:21;7.25;;;4.38;;
38937;SDS011;24727;51.974;20.868;2023-05-29T03:47:46;9.90;;;4.50;;
38937;SDS011;24727;51.974;20.868;2023-05-29T03:50:12;8.45;;;4.80;;
38937;SDS011;24727;51.974;20.868;2023-05-29T03:52:41;9.00;;;4.95;;
38937;SDS011;24727;51.974;20.868;2023-05-29T03:55:08;11.77;;;5.05;;
38937;SDS011;24727;51.974;20.868;2023-05-29T03:57:38;8.02;;;4.45;;
38937;SDS011;24727;51.974;20.868;2023-05-29T04:00:08;8.90;;;5.10;;
38937;SDS011;24727;51.974;20.868;2023-05-29T04:02:38;11.48;;;4.72;;
38937;SDS011;24727;51.974;20.868;2023-05-29T04:05:05;8.65;;;4.43;;
38937;SDS011;24727;51.974;20.868;2023-05-29T04:07:33;7.53;;;4.32;;
38937;SDS011;24727;51.974;20.868;2023-05-29T04:09:59;10.02;;;5.82;;
38937;SDS011;24727;51.974;20.868;2023-05-29T04:12:25;7.97;;;4.40;;
38937;SDS011;24727;51.974;20.868;2023-05-29T04:14:51;7.88;;;4.53;;
38937;SDS011;24727;51.974;20.868;2023-05-29T04:17:17;8.32;;;4.50;;
38937;SDS011;24727;51.974;20.868;2023-05-29T04:19:44;7.90;;;4.28;;
38937;SDS011;24727;51.974;20.868;2023-05-29T04:22:10;11.40;;;4.90;;
38937;SDS011;24727;51.974;20.868;2023-05-29T04:24:36;6.20;;;4.28;;
38937;SDS011;24727;51.974;20.868;2023-05-29T04:27:02;8.10;;;4.50;;
38937;SDS011;24727;51.974;20.868;2023-05-29T04:29:30;9.75;;;4.20;;
38937;SDS011;24727;51.974;20.868;2023-05-29T04:31:58;7.13;;;4.15;;
38937;SDS011;24727;51.974;20.868;2023-05-29T04:34:29;9.15;;;4.93;;
38937;SDS011;24727;51.974;20.868;2023-05-29T04:36:59;6.97;;;4.50;;
38937;SDS011;24727;51.974;20.868;2023-05-29T04:39:25;6.20;;;3.97;;
38937;SDS011;24727;51.974;20.868;2023-05-29T04:41:52;5.43;;;3.83;;
38937;SDS011;24727;51.974;20.868;2023-05-29T04:44:18;8.02;;;4.32;;
38937;SDS011;24727;51.974;20.868;2023-05-29T04:46:44;7.15;;;4.38;;
38937;SDS011;24727;51.974;20.868;2023-05-29T04:49:12;7.05;;;3.60;;
38937;SDS011;24727;51.974;20.868;2023-05-29T04:51:38;11.93;;;4.03;;
38937;SDS011;24727;51.974;20.868;2023-05-29T04:54:08;9.18;;;3.88;;
38937;SDS011;24727;51.974;20.868;2023-05-29T04:56:35;7.50;;;3.78;;
38937;SDS011;24727;51.974;20.868;2023-05-29T04:59:02;6.20;;;3.72;;
38937;SDS011;24727;51.974;20.868;2023-05-29T05:01:28;6.35;;;3.65;;
38937;SDS011;24727;51.974;20.868;2023-05-29T05:03:54;8.90;;;3.70;;
38937;SDS011;24727;51.974;20.868;2023-05-29T05:06:24;7.78;;;3.75;;
38937;SDS011;24727;51.974;20.868;2023-05-29T05:08:52;7.68;;;3.50;;
38937;SDS011;24727;51.974;20.868;2023-05-29T05:11:20;9.45;;;3.30;;
38937;SDS011;24727;51.974;20.868;2023-05-29T05:13:46;19.08;;;3.67;;
38937;SDS011;24727;51.974;20.868;2023-05-29T05:16:13;7.70;;;2.88;;
38937;SDS011;24727;51.974;20.868;2023-05-29T05:18:40;6.18;;;2.55;;
38937;SDS011;24727;51.974;20.868;2023-05-29T05:21:06;6.07;;;3.08;;
38937;SDS011;24727;51.974;20.868;2023-05-29T05:23:33;5.32;;;2.95;;
38937;SDS011;24727;51.974;20.868;2023-05-29T05:26:00;4.88;;;2.92;;
38937;SDS011;24727;51.974;20.868;2023-05-29T05:28:26;5.82;;;2.75;;
38937;SDS011;24727;51.974;20.868;2023-05-29T05:30:52;9.27;;;3.00;;
38937;SDS011;24727;51.974;20.868;2023-05-29T05:33:20;6.65;;;2.95;;
38937;SDS011;24727;51.974;20.868;2023-05-29T05:35:46;6.07;;;2.85;;
38937;SDS011;24727;51.974;20.868;2023-05-29T05:38:12;9.48;;;3.05;;
38937;SDS011;24727;51.974;20.868;2023-05-29T05:40:38;5.28;;;2.50;;
38937;SDS011;24727;51.974;20.868;2023-05-29T05:43:05;10.98;;;2.72;;
38937;SDS011;24727;51.974;20.868;2023-05-29T05:45:31;5.32;;;2.75;;
38937;SDS011;24727;51.974;20.868;2023-05-29T05:47:57;10.43;;;2.50;;
38937;SDS011;24727;51.974;20.868;2023-05-29T05:50:23;5.78;;;2.75;;
38937;SDS011;24727;51.974;20.868;2023-05-29T05:52:50;4.72;;;2.53;;
38937;SDS011;24727;51.974;20.868;2023-05-29T05:55:23;5.78;;;3.03;;
38937;SDS011;24727;51.974;20.868;2023-05-29T05:57:51;5.47;;;2.60;;
38937;SDS011;24727;51.974;20.868;2023-05-29T06:00:18;7.78;;;2.72;;
38937;SDS011;24727;51.974;20.868;2023-05-29T06:02:44;8.80;;;2.70;;
38937;SDS011;24727;51.974;20.868;2023-05-29T06:05:11;7.15;;;2.13;;
38937;SDS011;24727;51.974;20.868;2023-05-29T06:07:37;8.48;;;2.35;;
38937;SDS011;24727;51.974;20.868;2023-05-29T06:10:03;3.50;;;2.35;;
38937;SDS011;24727;51.974;20.868;2023-05-29T06:12:30;7.93;;;2.13;;
38937;SDS011;24727;51.974;20.868;2023-05-29T06:14:56;8.13;;;2.35;;
38937;SDS011;24727;51.974;20.868;2023-05-29T06:17:22;10.38;;;2.42;;
38937;SDS011;24727;51.974;20.868;2023-05-29T06:19:49;6.50;;;2.28;;
38937;SDS011;24727;51.974;20.868;2023-05-29T06:22:17;6.57;;;2.10;;
38937;SDS011;24727;51.974;20.868;2023-05-29T06:24:44;4.18;;;1.88;;
38937;SDS011;24727;51.974;20.868;2023-05-29T06:29:40;2.10;;;1.50;;
38937;SDS011;24727;51.974;20.868;2023-05-29T06:32:05;3.75;;;1.70;;
38937;SDS011;24727;51.974;20.868;2023-05-29T06:34:31;9.45;;;1.92;;
38937;SDS011;24727;51.974;20.868;2023-05-29T06:36:59;9.45;;;1.92;;
38937;SDS011;24727;51.974;20.868;2023-05-29T06:39:25;13.70;;;2.00;;
38937;SDS011;24727;51.974;20.868;2023-05-29T06:41:51;7.00;;;1.85;;
38937;SDS011;24727;51.974;20.868;2023-05-29T06:44:18;10.60;;;1.92;;
38937;SDS011;24727;51.974;20.868;2023-05-29T06:46:44;18.45;;;1.63;;
38937;SDS011;24727;51.974;20.868;2023-05-29T06:49:11;9.52;;;2.10;;
38937;SDS011;24727;51.974;20.868;2023-05-29T06:51:37;2.72;;;1.48;;
38937;SDS011;24727;51.974;20.868;2023-05-29T06:54:04;2.55;;;0.90;;
38937;SDS011;24727;51.974;20.868;2023-05-29T06:56:31;4.88;;;1.10;;
38937;SDS011;24727;51.974;20.868;2023-05-29T06:58:57;2.08;;;1.02;;
38937;SDS011;24727;51.974;20.868;2023-05-29T07:01:23;5.00;;;1.30;;
38937;SDS011;24727;51.974;20.868;2023-05-29T07:03:51;4.97;;;1.20;;
38937;SDS011;24727;51.974;20.868;2023-05-29T07:06:18;4.25;;;1.50;;
38937;SDS011;24727;51.974;20.868;2023-05-29T07:08:47;2.55;;;1.27;;
38937;SDS011;24727;51.974;20.868;2023-05-29T07:11:12;6.70;;;1.20;;
38937;SDS011;24727;51.974;20.868;2023-05-29T07:13:38;1.92;;;0.93;;
38937;SDS011;24727;51.974;20.868;2023-05-29T07:16:04;2.10;;;1.02;;
38937;SDS011;24727;51.974;20.868;2023-05-29T07:18:31;2.25;;;1.25;;
38937;SDS011;24727;51.974;20.868;2023-05-29T07:21:03;6.78;;;1.30;;
38937;SDS011;24727;51.974;20.868;2023-05-29T07:23:30;6.45;;;1.00;;
38937;SDS011;24727;51.974;20.868;2023-05-29T07:25:56;5.82;;;1.00;;
38937;SDS011;24727;51.974;20.868;2023-05-29T07:28:22;3.53;;;1.08;;
38937;SDS011;24727;51.974;20.868;2023-05-29T07:30:49;2.08;;;1.00;;
38937;SDS011;24727;51.974;20.868;2023-05-29T07:33:15;5.63;;;1.17;;
38937;SDS011;24727;51.974;20.868;2023-05-29T07:35:41;1.65;;;1.23;;
38937;SDS011;24727;51.974;20.868;2023-05-29T07:38:08;8.13;;;1.25;;
38937;SDS011;24727;51.974;20.868;2023-05-29T07:40:34;1.33;;;0.90;;
38937;SDS011;24727;51.974;20.868;2023-05-29T07:43:00;4.15;;;1.00;;
38937;SDS011;24727;51.974;20.868;2023-05-29T07:45:27;3.95;;;1.00;;
38937;SDS011;24727;51.974;20.868;2023-05-29T07:47:53;2.88;;;1.00;;
38937;SDS011;24727;51.974;20.868;2023-05-29T07:50:21;10.48;;;1.45;;
38937;SDS011;24727;51.974;20.868;2023-05-29T07:52:47;1.52;;;1.00;;
38937;SDS011;24727;51.974;20.868;2023-05-29T07:55:13;2.65;;;1.05;;
38937;SDS011;24727;51.974;20.868;2023-05-29T07:57:39;3.75;;;1.10;;
38937;SDS011;24727;51.974;20.868;2023-05-29T08:00:06;2.78;;;1.13;;
38937;SDS011;24727;51.974;20.868;2023-05-29T08:02:33;6.45;;;1.30;;
38937;SDS011;24727;51.974;20.868;2023-05-29T08:04:59;4.40;;;0.88;;
38937;SDS011;24727;51.974;20.868;2023-05-29T08:07:25;6.28;;;1.10;;
38937;SDS011;24727;51.974;20.868;2023-05-29T08:09:54;3.55;;;0.85;;
38937;SDS011;24727;51.974;20.868;2023-05-29T08:12:20;2.20;;;0.88;;
38937;SDS011;24727;51.974;20.868;2023-05-29T08:14:47;3.47;;;1.20;;
38937;SDS011;24727;51.974;20.868;2023-05-29T08:17:15;5.65;;;1.20;;
38937;SDS011;24727;51.974;20.868;2023-05-29T08:19:41;3.38;;;1.10;;
38937;SDS011;24727;51.974;20.868;2023-05-29T08:22:07;3.15;;;1.00;;
38937;SDS011;24727;51.974;20.868;2023-05-29T08:24:33;8.15;;;1.65;;
38937;SDS011;24727;51.974;20.868;2023-05-29T08:26:59;3.00;;;1.20;;
38937;SDS011;24727;51.974;20.868;2023-05-29T08:29:25;5.78;;;1.40;;
38937;SDS011;24727;51.974;20.868;2023-05-29T08:31:51;10.00;;;0.95;;
38937;SDS011;24727;51.974;20.868;2023-05-29T08:34:18;1.92;;;0.85;;
38937;SDS011;24727;51.974;20.868;2023-05-29T08:36:44;4.22;;;1.10;;
38937;SDS011;24727;51.974;20.868;2023-05-29T08:41:41;5.80;;;1.33;;
38937;SDS011;24727;51.974;20.868;2023-05-29T08:44:22;4.00;;;0.93;;
38937;SDS011;24727;51.974;20.868;2023-05-29T08:46:54;5.53;;;1.10;;
38937;SDS011;24727;51.974;20.868;2023-05-29T08:49:21;3.53;;;1.20;;
38937;SDS011;24727;51.974;20.868;2023-05-29T08:51:49;4.07;;;1.08;;
38937;SDS011;24727;51.974;20.868;2023-05-29T08:54:27;4.85;;;0.90;;
38937;SDS011;24727;51.974;20.868;2023-05-29T08:56:57;3.35;;;0.90;;
38937;SDS011;24727;51.974;20.868;2023-05-29T08:59:26;1.30;;;0.80;;
38937;SDS011;24727;51.974;20.868;2023-05-29T09:01:55;2.05;;;1.00;;
38937;SDS011;24727;51.974;20.868;2023-05-29T09:04:22;15.23;;;1.80;;
38937;SDS011;24727;51.974;20.868;2023-05-29T09:06:48;5.35;;;0.93;;
38937;SDS011;24727;51.974;20.868;2023-05-29T09:09:19;3.38;;;0.95;;
38937;SDS011;24727;51.974;20.868;2023-05-29T09:11:52;3.85;;;1.27;;
38937;SDS011;24727;51.974;20.868;2023-05-29T09:17:07;3.70;;;1.02;;
38937;SDS011;24727;51.974;20.868;2023-05-29T09:19:35;1.75;;;1.05;;
38937;SDS011;24727;51.974;20.868;2023-05-29T09:22:02;4.32;;;0.93;;
38937;SDS011;24727;51.974;20.868;2023-05-29T09:24:30;3.08;;;0.90;;
38937;SDS011;24727;51.974;20.868;2023-05-29T09:27:00;4.53;;;1.10;;
38937;SDS011;24727;51.974;20.868;2023-05-29T09:29:27;3.83;;;1.20;;
38937;SDS011;24727;51.974;20.868;2023-05-29T09:31:56;3.58;;;1.17;;
38937;SDS011;24727;51.974;20.868;2023-05-29T09:34:24;3.47;;;1.10;;
38937;SDS011;24727;51.974;20.868;2023-05-29T09:37:00;3.45;;;0.95;;
38937;SDS011;24727;51.974;20.868;2023-05-29T09:39:48;4.60;;;1.20;;
38937;SDS011;24727;51.974;20.868;2023-05-29T09:42:17;3.90;;;1.40;;
38937;SDS011;24727;51.974;20.868;2023-05-29T09:44:48;6.68;;;1.00;;
38937;SDS011;24727;51.974;20.868;2023-05-29T09:47:19;5.05;;;1.23;;
38937;SDS011;24727;51.974;20.868;2023-05-29T09:49:45;4.28;;;1.30;;
38937;SDS011;24727;51.974;20.868;2023-05-29T09:52:13;3.75;;;1.15;;
38937;SDS011;24727;51.974;20.868;2023-05-29T09:54:41;16.83;;;1.60;;
38937;SDS011;24727;51.974;20.868;2023-05-29T09:57:12;3.22;;;0.80;;
38937;SDS011;24727;51.974;20.868;2023-05-29T09:59:40;2.45;;;1.27;;
38937;SDS011;24727;51.974;20.868;2023-05-29T10:02:10;4.68;;;0.90;;
38937;SDS011;24727;51.974;20.868;2023-05-29T10:04:39;7.07;;;1.67;;
38937;SDS011;24727;51.974;20.868;2023-05-29T10:07:08;3.60;;;1.30;;
38937;SDS011;24727;51.974;20.868;2023-05-29T10:09:47;6.40;;;1.33;;
38937;SDS011;24727;51.974;20.868;2023-05-29T10:12:19;7.10;;;1.58;;
38937;SDS011;24727;51.974;20.868;2023-05-29T10:14:48;9.15;;;2.28;;
38937;SDS011;24727;51.974;20.868;2023-05-29T10:17:16;4.30;;;1.20;;
38937;SDS011;24727;51.974;20.868;2023-05-29T10:19:49;6.38;;;1.10;;
38937;SDS011;24727;51.974;20.868;2023-05-29T10:22:20;5.93;;;1.75;;
38937;SDS011;24727;51.974;20.868;2023-05-29T10:24:51;8.63;;;1.60;;
38937;SDS011;24727;51.974;20.868;2023-05-29T10:27:18;3.08;;;1.13;;
38937;SDS011;24727;51.974;20.868;2023-05-29T10:32:18;2.08;;;1.20;;
38937;SDS011;24727;51.974;20.868;2023-05-29T10:35:06;7.80;;;1.00;;
38937;SDS011;24727;51.974;20.868;2023-05-29T10:37:56;6.45;;;1.30;;
38937;SDS011;24727;51.974;20.868;2023-05-29T10:40:35;4.80;;;1.17;;
38937;SDS011;24727;51.974;20.868;2023-05-29T10:43:01;5.95;;;1.40;;
38937;SDS011;24727;51.974;20.868;2023-05-29T10:53:10;4.28;;;1.10;;
38937;SDS011;24727;51.974;20.868;2023-05-29T10:55:40;5.43;;;1.30;;
38937;SDS011;24727;51.974;20.868;2023-05-29T10:58:40;4.32;;;1.25;;
38937;SDS011;24727;51.974;20.868;2023-05-29T11:01:01;6.10;;;1.50;;
38937;SDS011;24727;51.974;20.868;2023-05-29T11:03:31;10.93;;;1.33;;
38937;SDS011;24727;51.974;20.868;2023-05-29T11:05:58;10.95;;;0.93;;
38937;SDS011;24727;51.974;20.868;2023-05-29T11:13:55;4.90;;;1.27;;
38937;SDS011;24727;51.974;20.868;2023-05-29T11:18:59;2.08;;;1.23;;
38937;SDS011;24727;51.974;20.868;2023-05-29T11:24:24;2.60;;;1.20;;
38937;SDS011;24727;51.974;20.868;2023-05-29T11:26:55;3.72;;;2.08;;
38937;SDS011;24727;51.974;20.868;2023-05-29T11:29:29;3.38;;;1.42;;
38937;SDS011;24727;51.974;20.868;2023-05-29T11:34:35;6.30;;;1.60;;
38937;SDS011;24727;51.974;20.868;2023-05-29T11:37:04;7.18;;;1.38;;
38937;SDS011;24727;51.974;20.868;2023-05-29T11:39:31;1.95;;;1.38;;
38937;SDS011;24727;51.974;20.868;2023-05-29T11:42:03;4.93;;;1.60;;
38937;SDS011;24727;51.974;20.868;2023-05-29T11:44:30;3.38;;;1.30;;
38937;SDS011;24727;51.974;20.868;2023-05-29T11:47:05;2.50;;;1.63;;
38937;SDS011;24727;51.974;20.868;2023-05-29T11:49:34;3.20;;;1.20;;
38937;SDS011;24727;51.974;20.868;2023-05-29T11:52:06;3.70;;;1.95;;
38937;SDS011;24727;51.974;20.868;2023-05-29T11:54:34;6.55;;;1.30;;
38937;SDS011;24727;51.974;20.868;2023-05-29T11:57:01;4.07;;;1.60;;
38937;SDS011;24727;51.974;20.868;2023-05-29T11:59:30;4.85;;;1.60;;
38937;SDS011;24727;51.974;20.868;2023-05-29T12:01:57;2.15;;;1.40;;
38937;SDS011;24727;51.974;20.868;2023-05-29T12:04:24;2.78;;;1.52;;
38937;SDS011;24727;51.974;20.868;2023-05-29T12:06:50;4.63;;;1.80;;
38937;SDS011;24727;51.974;20.868;2023-05-29T12:09:26;2.65;;;1.35;;
38937;SDS011;24727;51.974;20.868;2023-05-29T12:12:03;5.25;;;1.75;;
38937;SDS011;24727;51.974;20.868;2023-05-29T12:14:31;2.60;;;1.40;;
38937;SDS011;24727;51.974;20.868;2023-05-29T12:16:58;3.55;;;1.90;;
38937;SDS011;24727;51.974;20.868;2023-05-29T12:19:24;1.90;;;1.45;;
38937;SDS011;24727;51.974;20.868;2023-05-29T12:21:51;3.45;;;1.33;;
38937;SDS011;24727;51.974;20.868;2023-05-29T12:24:21;7.18;;;1.20;;
38937;SDS011;24727;51.974;20.868;2023-05-29T12:26:47;6.45;;;1.52;;
38937;SDS011;24727;51.974;20.868;2023-05-29T12:29:14;2.55;;;1.60;;
38937;SDS011;24727;51.974;20.868;2023-05-29T12:31:41;2.50;;;1.17;;
38937;SDS011;24727;51.974;20.868;2023-05-29T12:34:12;4.47;;;1.50;;
38937;SDS011;24727;51.974;20.868;2023-05-29T12:36:42;4.50;;;1.42;;
38937;SDS011;24727;51.974;20.868;2023-05-29T12:39:11;2.42;;;1.50;;
38937;SDS011;24727;51.974;20.868;2023-05-29T12:41:37;4.43;;;1.67;;
38937;SDS011;24727;51.974;20.868;2023-05-29T12:44:05;4.20;;;1.50;;
38937;SDS011;24727;51.974;20.868;2023-05-29T12:46:41;3.70;;;1.23;;
38937;SDS011;24727;51.974;20.868;2023-05-29T12:49:14;3.97;;;1.63;;
38937;SDS011;24727;51.974;20.868;2023-05-29T12:51:42;4.85;;;1.50;;
38937;SDS011;24727;51.974;20.868;2023-05-29T12:54:10;1.90;;;1.30;;
38937;SDS011;24727;51.974;20.868;2023-05-29T12:56:37;2.60;;;1.00;;
38937;SDS011;24727;51.974;20.868;2023-05-29T12:59:12;3.25;;;1.05;;
38937;SDS011;24727;51.974;20.868;2023-05-29T13:01:40;4.32;;;1.50;;
38937;SDS011;24727;51.974;20.868;2023-05-29T13:04:07;3.40;;;1.55;;
38937;SDS011;24727;51.974;20.868;2023-05-29T13:06:34;4.57;;;1.45;;
38937;SDS011;24727;51.974;20.868;2023-05-29T13:09:02;2.40;;;1.10;;
38937;SDS011;24727;51.974;20.868;2023-05-29T13:11:28;2.70;;;1.17;;
38937;SDS011;24727;51.974;20.868;2023-05-29T13:13:54;10.70;;;2.13;;
38937;SDS011;24727;51.974;20.868;2023-05-29T13:16:21;5.68;;;1.38;;
38937;SDS011;24727;51.974;20.868;2023-05-29T13:18:47;3.33;;;1.25;;
38937;SDS011;24727;51.974;20.868;2023-05-29T13:21:13;2.47;;;1.40;;
38937;SDS011;24727;51.974;20.868;2023-05-29T13:23:40;7.82;;;1.73;;
38937;SDS011;24727;51.974;20.868;2023-05-29T13:26:14;4.00;;;1.60;;
38937;SDS011;24727;51.974;20.868;2023-05-29T13:28:40;6.03;;;1.60;;
38937;SDS011;24727;51.974;20.868;2023-05-29T13:31:06;6.28;;;1.58;;
38937;SDS011;24727;51.974;20.868;2023-05-29T13:33:32;3.67;;;1.25;;
38937;SDS011;24727;51.974;20.868;2023-05-29T13:35:58;3.45;;;1.48;;
38937;SDS011;24727;51.974;20.868;2023-05-29T13:38:26;2.97;;;1.60;;
38937;SDS011;24727;51.974;20.868;2023-05-29T13:40:53;4.72;;;1.42;;
38937;SDS011;24727;51.974;20.868;2023-05-29T13:45:48;2.58;;;1.60;;
38937;SDS011;24727;51.974;20.868;2023-05-29T13:48:14;4.93;;;1.38;;
38937;SDS011;24727;51.974;20.868;2023-05-29T13:50:40;4.88;;;1.45;;
38937;SDS011;24727;51.974;20.868;2023-05-29T13:53:06;6.03;;;1.60;;
38937;SDS011;24727;51.974;20.868;2023-05-29T13:55:32;4.95;;;1.50;;
38937;SDS011;24727;51.974;20.868;2023-05-29T13:57:58;4.13;;;1.80;;
38937;SDS011;24727;51.974;20.868;2023-05-29T14:00:26;3.92;;;1.60;;
38937;SDS011;24727;51.974;20.868;2023-05-29T14:02:52;5.00;;;1.75;;
38937;SDS011;24727;51.974;20.868;2023-05-29T14:05:18;6.70;;;1.65;;
38937;SDS011;24727;51.974;20.868;2023-05-29T14:07:45;2.70;;;1.20;;
38937;SDS011;24727;51.974;20.868;2023-05-29T14:10:12;2.40;;;1.42;;
38937;SDS011;24727;51.974;20.868;2023-05-29T14:12:38;2.92;;;1.55;;
38937;SDS011;24727;51.974;20.868;2023-05-29T14:15:05;5.82;;;1.88;;
38937;SDS011;24727;51.974;20.868;2023-05-29T14:17:33;2.70;;;1.20;;
38937;SDS011;24727;51.974;20.868;2023-05-29T14:19:59;3.20;;;1.55;;
38937;SDS011;24727;51.974;20.868;2023-05-29T14:22:29;2.40;;;1.30;;
38937;SDS011;24727;51.974;20.868;2023-05-29T14:24:57;3.00;;;1.65;;
38937;SDS011;24727;51.974;20.868;2023-05-29T14:27:26;3.80;;;1.17;;
38937;SDS011;24727;51.974;20.868;2023-05-29T14:29:52;4.70;;;1.60;;
38937;SDS011;24727;51.974;20.868;2023-05-29T14:32:18;3.95;;;1.30;;
38937;SDS011;24727;51.974;20.868;2023-05-29T14:34:46;6.70;;;1.50;;
38937;SDS011;24727;51.974;20.868;2023-05-29T14:37:12;2.75;;;1.45;;
38937;SDS011;24727;51.974;20.868;2023-05-29T14:39:38;6.95;;;1.58;;
38937;SDS011;24727;51.974;20.868;2023-05-29T14:42:04;8.45;;;1.58;;
38937;SDS011;24727;51.974;20.868;2023-05-29T14:44:31;3.42;;;1.58;;
38937;SDS011;24727;51.974;20.868;2023-05-29T14:46:59;1.55;;;1.40;;
38937;SDS011;24727;51.974;20.868;2023-05-29T14:49:26;4.07;;;1.60;;
38937;SDS011;24727;51.974;20.868;2023-05-29T14:51:57;5.55;;;1.50;;
38937;SDS011;24727;51.974;20.868;2023-05-29T14:54:23;5.57;;;1.48;;
38937;SDS011;24727;51.974;20.868;2023-05-29T14:56:49;6.00;;;1.95;;
38937;SDS011;24727;51.974;20.868;2023-05-29T14:59:15;4.38;;;1.40;;
38937;SDS011;24727;51.974;20.868;2023-05-29T15:01:41;6.43;;;1.38;;
38937;SDS011;24727;51.974;20.868;2023-05-29T15:04:13;7.50;;;1.90;;
38937;SDS011;24727;51.974;20.868;2023-05-29T15:09:07;4.90;;;1.45;;
38937;SDS011;24727;51.974;20.868;2023-05-29T15:11:32;4.95;;;1.83;;
38937;SDS011;24727;51.974;20.868;2023-05-29T15:13:59;2.97;;;1.17;;
38937;SDS011;24727;51.974;20.868;2023-05-29T15:16:26;6.30;;;1.40;;
38937;SDS011;24727;51.974;20.868;2023-05-29T15:18:53;2.42;;;1.40;;
38937;SDS011;24727;51.974;20.868;2023-05-29T15:21:22;4.75;;;1.63;;
38937;SDS011;24727;51.974;20.868;2023-05-29T15:23:51;2.42;;;1.50;;
38937;SDS011;24727;51.974;20.868;2023-05-29T15:26:17;2.50;;;1.52;;